Tiempo atmosférico en la estación meteorológica de Almadén de la Plata, Sevilla (450 m.)



Fecha
DESCASC
Temp. máxima en grados centígrados (hora)
DESCASC
Temp. mínima en grados centígrados (hora)
DESCASC
Temp. media en grados centígrados
DESCASC
Racha de viento máxima en m/sg (hora)
DESCASC
Velocidad máxima media en intervalos de 10 minutos(hora)
DESCASC
Precipitaciones diarias en mm
DESCASC
Precipitaciones de 00:00 a 06:00 en mm
DESCASC
Precipitaciones de 06:00 a 12:00 en mm
DESCASC
Precipitaciones de 12:00 a 18:00 en mm
DESCASC
Precipitaciones de 18:00 a 24:00 en mm
DESCASC
19-02-2019 16.6 (16:10) 7.6 (07:50) 12.1 5.28 (15:50) 2.22 (15:50) 0.6 0.6 0 0 0
18-02-2019 14.2 (17:30) 7.2 (04:20) 10.7 5 (14:50) 2.78 (14:30) 0 0 0 0 0
17-02-2019 16.7 (15:40) 4.6 (00:00) 10.7 6.39 (12:40) 3.61 (12:40) 0 0 0 0 0
16-02-2019 15.7 (14:00) 7.4 (00:00) 11.5 6.67 (13:20) 3.89 (13:10) 0 0 0 0 0
15-02-2019 18.1 (16:00) 4.3 (00:00) 11.2 7.22 (13:40) 3.61 (11:10) 0 0 0 0 0
14-02-2019 17.2 (16:40) 5.2 (00:00) 11.2 6.39 (13:50) 3.33 (14:10) 0 0 0 0 0
13-02-2019 16.7 (15:40) 5.6 (00:00) 11.2 7.22 (14:00) 3.61 (14:50) 0 0 0 0 0
12-02-2019 17 (16:40) 6.7 (00:00) 11.8 6.39 (13:20) 3.61 (16:50) 0 0 0 0 0
11-02-2019 18.5 (15:00) 7.2 (00:00) 12.8 -- (--) 2.22 (17:20) 0 0 0 0 0
10-02-2019 15.4 (13:30) 4.9 (00:00) 10.1 -- (--) 3.33 (15:10) 0 0 0 0 0
09-02-2019 15.7 (15:50) 4.2 (00:00) 9.9 -- (--) 2.22 (19:20) 0 0 0 0 0
08-02-2019 17.6 (16:40) 5.4 (00:00) 11.5 -- (--) 2.5 (20:20) 0 0 0 0 0
07-02-2019 18.8 (15:50) 7.2 (00:00) 13 4.17 (14:00) 2.5 (19:50) 0 0 0 0 0
06-02-2019 19.7 (16:40) 7.2 (08:20) 13.5 5.28 (17:40) 2.78 (17:50) 0 0 0 0 0
05-02-2019 19.4 (16:00) 4.6 (07:30) 12 3.89 (19:20) 2.5 (19:20) 0 0 0 0 0
04-02-2019 16.3 (17:10) 1.5 (00:00) 8.9 5.28 (10:30) 2.78 (10:40) 0 0 0 0 0
03-02-2019 12.9 (16:40) 1.5 (00:00) 7.2 7.78 (00:30) 3.61 (00:50) 0 0 0 0 0
02-02-2019 10.7 (15:00) 4.7 (00:00) 7.7 13.33 (13:30) 6.39 (02:20) 0 0 0 0 0
01-02-2019 12.3 (03:10) 4.7 (00:00) 8.5 18.61 (17:10) 8.89 (17:10) 22.6 20 0.2 2.4 0
31-01-2019 13.6 (14:00) 9.9 (00:00) 11.8 9.17 (12:40) 4.17 (12:40) 2 1 0.2 0.4 0.4
30-01-2019 12.8 (13:50) 8 (00:00) 10.4 8.89 (03:40) 4.44 (03:50) 0.8 0 0 0.2 0.6
29-01-2019 13.1 (14:50) 5.5 (00:00) 9.3 10.56 (15:30) 5.83 (16:50) 0 0 0 0 0
28-01-2019 14.2 (14:00) 4.3 (00:00) 9.3 10.56 (12:40) 5.56 (15:30) 0 0 0 0 0
27-01-2019 12.8 (16:40) 3.9 (00:00) 8.4 10.83 (15:20) 6.11 (17:20) 0 0 0 0 0
26-01-2019 19.6 (16:00) 7.1 (00:00) 13.4 5.28 (12:20) 3.33 (12:20) 0 0 0 0 0
25-01-2019 20.1 (15:10) 6.8 (00:00) 13.5 4.72 (17:00) 2.22 (14:10) 0 0 0 0 0
24-01-2019 18.3 (16:40) 9.5 (00:00) 13.9 12.78 (06:10) 6.39 (04:10) 0 0 0 0 0

Gráficas

Temp. máximas Temp. mínimas Temp. medias Precipitaciones Rachas de viento máximas Velocidades máximas media en intervalos de 10 minutos

Datos horarios

Fecha y hora oficial Temperatura (ºC) Velocidad del viento (km/h) Dirección del viento Racha (km/h) Dirección de racha Precipitación (mm) Presión (hPa) Tendencia (hPa) Humedad (%)
2019-02-22 23:00:00 10.8 0 Calma 3 Sudeste 0 -- -- 63
2019-02-22 22:00:00 11.2 0 Calma 2 Sudoeste 0 -- -- 61
2019-02-22 21:00:00 11.7 2 Oeste -- -- 0 -- -- 59
2019-02-22 20:00:00 12.6 -- -- -- -- 0 -- -- 56
2019-02-22 19:00:00 14.7 3 Sur 7 Sur 0 -- -- 52
2019-02-22 18:00:00 18 5 Sudeste 13 Sudeste 0 -- -- 40
2019-02-22 17:00:00 19.4 4 Sudeste 15 Sudeste 0 -- -- 37
2019-02-22 16:00:00 19.6 5 Sur 14 Sur 0 -- -- 35
2019-02-22 15:00:00 19.2 8 Este 15 Este 0 -- -- 40
2019-02-22 14:00:00 17.9 8 Sudeste 25 Sudeste 0 -- -- 40
2019-02-22 13:00:00 16.8 10 Este 23 Este 0 -- -- 42
2019-02-22 12:00:00 15.3 12 Este 25 Este 0 -- -- 48
2019-02-22 11:00:00 13.4 12 Este 23 Sudeste 0 -- -- 56
2019-02-22 10:00:00 11.4 9 Este 17 Este 0 -- -- 66
2019-02-22 09:00:00 8.6 6 Este 12 Este 0 -- -- 73
2019-02-22 08:00:00 7.6 4 Sudeste 17 Este 0 -- -- 76
2019-02-22 07:00:00 7.8 7 Este 14 Sudeste 0 -- -- 78
2019-02-22 06:00:00 7.6 6 Este 12 Sudeste 0 -- -- 81
2019-02-22 05:00:00 8 8 Este 15 Este 0 -- -- 79
2019-02-22 04:00:00 7 5 Sudeste 7 Sudeste 0 -- -- 84
2019-02-22 03:00:00 7.3 4 Este 9 Este 0 -- -- 82
2019-02-22 02:00:00 7.7 4 Sudeste 9 Este 0 -- -- 79
2019-02-22 01:00:00 8.1 5 Este 8 Este 0 -- -- 78
2019-02-22 00:00:00 8 0 Calma 4 Este 0 -- -- 81
2019-02-21 23:00:00 9.4 3 Este 11 Sudeste 0 -- -- 73
2019-02-21 22:00:00 10.6 5 Sudeste 10 Este 0 -- -- 67
2019-02-21 21:00:00 10.9 4 Este 8 Sudeste 0 -- -- 66
2019-02-21 20:00:00 12.7 5 Sudeste 13 Sudeste 0 -- -- 59
2019-02-21 19:00:00 14 4 Sudeste 15 Sudeste 0 -- -- 57
2019-02-21 18:00:00 16 7 Sudeste 22 Este 0 -- -- 52
2019-02-21 17:00:00 17 7 Sudeste 22 Este 0 -- -- 52
2019-02-21 16:00:00 17.1 10 Este 24 Este 0 -- -- 53
2019-02-21 15:00:00 16.3 12 Sudeste 28 Este 0 -- -- 54
2019-02-21 14:00:00 15.7 11 Este 24 Este 0 -- -- 56
2019-02-21 13:00:00 14.8 13 Este 24 Este 0 -- -- 59
2019-02-21 12:00:00 14.1 8 Este 26 Sudeste 0 -- -- 66
2019-02-21 11:00:00 11.9 16 Este 28 Este 0 -- -- 71
2019-02-21 10:00:00 9.7 12 Este 21 Este 0 -- -- 81
2019-02-21 09:00:00 7 5 Este 10 Este 0 -- -- 93
2019-02-21 08:00:00 6.6 4 Este 13 Este 0 -- -- 92
2019-02-21 07:00:00 7.3 6 Este 16 Este 0 -- -- 89
2019-02-21 06:00:00 7.1 5 Este 10 Este 0 -- -- 90
2019-02-21 05:00:00 7 5 Este 10 Este 0 -- -- 90
2019-02-21 04:00:00 6.6 6 Este 9 Este 0 -- -- 88
2019-02-21 03:00:00 6.8 5 Este 8 Este 0 -- -- 84
2019-02-21 02:00:00 7.5 0 Calma 15 Este 0 -- -- 77
2019-02-21 01:00:00 8.7 6 Sudeste 15 Este 0 -- -- 72
2019-02-21 00:00:00 9.5 6 Este 12 Este 0 -- -- 75
2019-02-20 23:00:00 10 5 Este 12 Sudeste 0 -- -- 78
2019-02-20 22:00:00 10.3 8 Sudeste 10 Este 0 -- -- 79
2019-02-20 21:00:00 11.2 4 Sudeste 8 Sudeste 0 -- -- 75
2019-02-20 20:00:00 11.4 5 Sudeste 9 Este 0 -- -- 74
2019-02-20 19:00:00 13.1 4 Sudeste 10 Este 0 -- -- 67
2019-02-20 18:00:00 15.2 5 Este 17 Este 0 -- -- 59
2019-02-20 17:00:00 16.2 8 Este 20 Este 0 -- -- 55
2019-02-20 16:00:00 16.5 5 Este 18 Este 0 -- -- 57
2019-02-20 15:00:00 16.1 7 Sudeste 20 Sudeste 0 -- -- 55
2019-02-20 14:00:00 15.5 9 Este 17 Sudeste 0 -- -- 63
2019-02-20 13:00:00 15.1 9 Este 17 Este 0 -- -- 61
2019-02-20 12:00:00 14.6 4 Este 10 Este 0 -- -- 73
2019-02-20 11:00:00 12.3 5 Este 9 Este 0 -- -- 78
2019-02-20 10:00:00 9.1 0 Calma 4 Este 0 -- -- 92
2019-02-20 09:00:00 7 3 Sudeste 5 Sudeste 0 -- -- 96
2019-02-20 08:00:00 5.9 0 Calma 3 Este 0 -- -- 96
2019-02-20 07:00:00 6.3 0 Calma 4 Sudeste 0 -- -- 94
2019-02-20 06:00:00 6.6 0 Calma 4 Sudeste 0 -- -- 93
2019-02-20 05:00:00 6.7 0 Calma 2 Sudoeste 0 -- -- 93
2019-02-20 04:00:00 6.9 0 Calma 2 Sudeste 0 -- -- 90
2019-02-20 03:00:00 7.7 0 Calma 2 Oeste 0 -- -- 88
2019-02-20 02:00:00 8 0 Calma 3 Sudoeste 0 -- -- 89
2019-02-20 01:00:00 8.5 0 Calma 5 Sudoeste 0 -- -- 87
2019-02-20 00:00:00 9.8 0 Calma 7 Este 0 -- -- 81
2019-02-19 23:00:00 10.3 4 Sudeste 8 Sudeste 0 -- -- 79
2019-02-19 22:00:00 9.7 3 Este 5 Este 0 -- -- 84
2019-02-19 21:00:00 10.2 0 Calma 8 Oeste 0 -- -- 84
2019-02-19 20:00:00 10.4 2 Oeste 4 Oeste 0 -- -- 81
2019-02-19 19:00:00 11.3 0 Calma 8 Noroeste 0 -- -- 78
2019-02-19 18:00:00 12.4 2 Norte 12 Norte 0 -- -- 72
2019-02-19 17:00:00 14.6 3 Nordeste 15 Sudoeste 0 -- -- 63
2019-02-19 16:00:00 16.5 8 Sur 19 Sur 0 -- -- 63
2019-02-19 15:00:00 15.7 0 Calma 12 Sudeste 0 -- -- 68
2019-02-19 14:00:00 14.7 4 Sur 13 Sudeste 0 -- -- 73
2019-02-19 13:00:00 14.8 3 Este 6 Este 0 -- -- 67
2019-02-19 12:00:00 15 3 Nordeste 7 Norte 0 -- -- 71
2019-02-19 11:00:00 13 2 Nordeste 4 Nordeste 0 -- -- 79
2019-02-19 10:00:00 10.1 0 Calma 2 Noroeste 0 -- -- 91
2019-02-19 09:00:00 8 0 Calma 4 Noroeste 0 -- -- 96
2019-02-19 08:00:00 7.6 2 Oeste 5 Sudoeste 0 -- -- 95
2019-02-19 07:00:00 7.9 2 Oeste 3 Oeste 0 -- -- 93
2019-02-19 06:00:00 8.8 2 Sudoeste 9 Oeste 0.4 -- -- 94
2019-02-19 05:00:00 9.4 4 Sudoeste 9 Sur 0.2 -- -- 88
2019-02-19 04:00:00 9.7 4 Oeste 10 Oeste 0 -- -- 80
2019-02-19 03:00:00 9.4 4 Oeste 13 Oeste 0 -- -- 75
2019-02-19 02:00:00 9.3 0 Calma 5 Sudoeste 0 -- -- 77
2019-02-19 01:00:00 9.3 2 Sudoeste 5 Sudoeste 0 -- -- 76
2019-02-19 00:00:00 9.2 0 Calma 0 Calma 0 -- -- 76
2019-02-18 23:00:00 8.9 0 Calma 2 Sudeste 0 -- -- 77
2019-02-18 22:00:00 8.8 0 Calma 9 Sudeste 0 -- -- 73
2019-02-18 21:00:00 10.3 6 Sudeste 10 Sudeste 0 -- -- 65
2019-02-18 20:00:00 10.9 5 Este 9 Este 0 -- -- 65
2019-02-18 19:00:00 12.1 4 Este 9 Este 0 -- -- 66
2019-02-18 18:00:00 13.9 3 Este 10 Este 0 -- -- 64
2019-02-18 17:00:00 14.1 6 Este 17 Este 0 -- -- 61
2019-02-18 16:00:00 14.1 6 Este 16 Este 0 -- -- 64
2019-02-18 15:00:00 13.3 6 Este 18 Sudeste 0 -- -- 63
2019-02-18 14:00:00 11.9 8 Este 17 Este 0 -- -- 69
2019-02-18 13:00:00 10.2 6 Este 13 Este 0 -- -- 79
2019-02-18 12:00:00 9.3 7 Este 14 Este 0 -- -- 79
2019-02-18 11:00:00 9.1 8 Este 14 Este 0 -- -- 77
2019-02-18 10:00:00 8.5 5 Este 14 Este 0 -- -- 84
2019-02-18 09:00:00 7.7 5 Este 9 Este 0 -- -- 92
2019-02-18 08:00:00 7.4 4 Este 6 Este 0 -- -- 96
2019-02-18 07:00:00 7.2 3 Este 9 Este 0 -- -- 98
2019-02-18 06:00:00 7.3 4 Sudeste 9 Sudeste 0 -- -- 98
2019-02-18 05:00:00 7.5 2 Este 6 Sudeste 0 -- -- 97
2019-02-18 04:00:00 7.5 2 Sur 6 Sudeste 0 -- -- 95
2019-02-18 03:00:00 7.9 3 Sur 6 Sudoeste 0 -- -- 94
2019-02-18 02:00:00 8.2 4 Sudoeste 10 Sudoeste 0 -- -- 94
2019-02-18 01:00:00 8.7 5 Sur 10 Sudoeste 0 -- -- 92
2019-02-18 00:00:00 9.7 4 Sudoeste 14 Oeste 0 -- -- 89
2019-02-17 23:00:00 9.6 4 Sudoeste 10 Sudoeste 0 -- -- 92
2019-02-17 22:00:00 10.3 5 Sudoeste 10 Oeste 0 -- -- 88
2019-02-17 21:00:00 10.3 5 Sudoeste 10 Sur 0 -- -- 80
2019-02-17 20:00:00 10.7 4 Sudoeste 6 Sur 0 -- -- 73
2019-02-17 19:00:00 12.6 3 Sur 12 Sudoeste 0 -- -- 64
2019-02-17 18:00:00 15.5 5 Sudoeste 15 Sudoeste 0 -- -- 53
2019-02-17 17:00:00 16.4 8 Sur 21 Sur 0 -- -- 48
2019-02-17 16:00:00 16.7 6 Sudeste 20 Sudeste 0 -- -- 48
2019-02-17 15:00:00 16.2 9 Sudeste 21 Sudeste 0 -- -- 48
2019-02-17 14:00:00 15.4 8 Sudeste 21 Este 0 -- -- 52
2019-02-17 13:00:00 14.6 12 Este 23 Este 0 -- -- 58
2019-02-17 12:00:00 13.5 9 Este 22 Este 0 -- -- 64
2019-02-17 11:00:00 11.9 9 Este 20 Este 0 -- -- 71
2019-02-17 10:00:00 9.8 6 Este 13 Este 0 -- -- 82
2019-02-17 09:00:00 5.1 0 Calma 4 Sudeste 0 -- -- 96
2019-02-17 08:00:00 5 0 Calma 13 Este 0 -- -- 91
2019-02-17 07:00:00 5.7 5 Este 8 Este 0 -- -- 94
2019-02-17 06:00:00 5.9 4 Este 11 Este 0 -- -- 92
2019-02-17 05:00:00 6.1 2 Nordeste 7 Este 0 -- -- 87
2019-02-17 04:00:00 6.3 4 Sudeste 14 Este 0 -- -- 88
2019-02-17 03:00:00 6.6 7 Este 14 Este 0 -- -- 86
2019-02-17 02:00:00 6.5 6 Este 10 Este 0 -- -- 80
2019-02-17 01:00:00 7.2 6 Este 13 Este 0 -- -- 74
2019-02-17 00:00:00 7.4 6 Este 12 Este 0 -- -- 71
2019-02-16 23:00:00 8.1 6 Este 16 Este 0 -- -- 67
2019-02-16 22:00:00 8.8 5 Este 13 Este 0 -- -- 65
2019-02-16 21:00:00 10 7 Este 12 Este 0 -- -- 62
2019-02-16 20:00:00 11.5 6 Sudeste 17 Sudeste 0 -- -- 57
2019-02-16 19:00:00 12.8 6 Sudeste 14 Sudeste 0 -- -- 61
2019-02-16 18:00:00 14.6 5 Sudeste 20 Sudeste 0 -- -- 60
2019-02-16 17:00:00 15.6 7 Este 18 Sudeste 0 -- -- 52
2019-02-16 16:00:00 14.6 10 Sudeste 19 Sudeste 0 -- -- 49
2019-02-16 15:00:00 14.4 6 Este 19 Este 0 -- -- 47
2019-02-16 14:00:00 15.7 9 Este 24 Este 0 -- -- 51
2019-02-16 13:00:00 14.9 12 Este 23 Este 0 -- -- 53
2019-02-16 12:00:00 13.5 9 Este 18 Este 0 -- -- 63
2019-02-16 11:00:00 11.7 5 Nordeste 12 Nordeste 0 -- -- 72
2019-02-16 10:00:00 9.9 7 Este 10 Este 0 -- -- 78
2019-02-16 09:00:00 8.8 6 Sudeste 9 Este 0 -- -- 82
2019-02-16 08:00:00 8.5 5 Este 8 Este 0 -- -- 84
2019-02-16 07:00:00 8.4 5 Este 11 Este 0 -- -- 84
2019-02-16 06:00:00 8 7 Este 15 Este 0 -- -- 85
2019-02-16 05:00:00 7.6 5 Este 8 Nordeste 0 -- -- 90
2019-02-16 04:00:00 8.3 0 Calma 11 Este 0 -- -- 86
2019-02-16 03:00:00 9 6 Este 14 Este 0 -- -- 84
2019-02-16 02:00:00 8.8 6 Este 10 Este 0 -- -- 84
2019-02-16 01:00:00 8.7 3 Este 7 Este 0 -- -- 83
2019-02-16 00:00:00 9.6 3 Este 9 Este 0 -- -- 78
2019-02-15 23:00:00 10.3 5 Este 13 Este 0 -- -- 76
2019-02-15 22:00:00 11 8 Sudeste 15 Este 0 -- -- 68
2019-02-15 21:00:00 10.7 0 Calma 10 Este 0 -- -- 69
2019-02-15 20:00:00 11.9 4 Este 9 Sudeste 0 -- -- 64
2019-02-15 19:00:00 13.5 5 Sudeste 14 Este 0 -- -- 59
2019-02-15 18:00:00 16.3 6 Nordeste 17 Este 0 -- -- 50
2019-02-15 17:00:00 17.3 10 Este 19 Sudeste 0 -- -- 50
2019-02-15 16:00:00 18.1 8 Este 21 Nordeste 0 -- -- 50
2019-02-15 15:00:00 17.2 11 Este 23 Este 0 -- -- 51
2019-02-15 14:00:00 16.4 10 Este 26 Este 0 -- -- 56
2019-02-15 13:00:00 15.1 11 Este 22 Este 0 -- -- 60
2019-02-15 12:00:00 13.8 13 Este 23 Este 0 -- -- 69
2019-02-15 11:00:00 11.9 12 Este 26 Este 0 -- -- 76
2019-02-15 10:00:00 10.1 9 Nordeste 19 Este 0 -- -- 84
2019-02-15 09:00:00 6.6 6 Este 14 Este 0 -- -- 98
2019-02-15 08:00:00 5.5 4 Este 11 Este 0 -- -- 96
2019-02-15 07:00:00 5.7 4 Este 8 Este 0 -- -- 97
2019-02-15 06:00:00 4.4 0 Calma 4 Nordeste 0 -- -- 96
2019-02-15 05:00:00 4.8 0 Calma 4 Noroeste 0 -- -- 95
2019-02-15 04:00:00 5.5 3 Este 7 Este 0 -- -- 94
2019-02-15 03:00:00 5.2 0 Calma 8 Este 0 -- -- 92
2019-02-15 02:00:00 5.7 0 Calma 7 Este 0 -- -- 88
2019-02-15 01:00:00 6 0 Calma 6 Este 0 -- -- 90
2019-02-15 00:00:00 7.2 0 Calma 13 Sudeste 0 -- -- 84
2019-02-14 23:00:00 8.6 3 Este 8 Este 0 -- -- 79
2019-02-14 22:00:00 9.5 5 Sudeste 11 Sudeste 0 -- -- 76
2019-02-14 21:00:00 10.6 5 Sudeste 9 Sudeste 0 -- -- 72
2019-02-14 20:00:00 11.4 6 Sudeste 10 Sudeste 0 -- -- 70
2019-02-14 19:00:00 12.9 4 Sudeste 12 Este 0 -- -- 66
2019-02-14 18:00:00 15.8 6 Este 18 Este 0 -- -- 56
2019-02-14 17:00:00 17.1 10 Este 21 Este 0 -- -- 53
2019-02-14 16:00:00 16.8 11 Este 22 Este 0 -- -- 53
2019-02-14 15:00:00 16.2 12 Este 23 Nordeste 0 -- -- 54
2019-02-14 14:00:00 15.7 11 Este 23 Este 0 -- -- 58
2019-02-14 13:00:00 14.7 12 Este 22 Este 0 -- -- 61
2019-02-14 12:00:00 13.4 11 Nordeste 20 Este 0 -- -- 68
2019-02-14 11:00:00 11.4 12 Este 21 Este 0 -- -- 74
2019-02-14 10:00:00 9.4 8 Este 19 Este 0 -- -- 82
2019-02-14 09:00:00 5.9 5 Este 10 Este 0 -- -- 98
2019-02-14 08:00:00 5.6 0 Calma 12 Este 0 -- -- 94
2019-02-14 07:00:00 6 5 Este 12 Este 0 -- -- 93
2019-02-14 06:00:00 6.1 6 Este 11 Este 0 -- -- 90
2019-02-14 05:00:00 6.2 5 Este 10 Este 0 -- -- 87
2019-02-14 04:00:00 6.5 4 Este 10 Este 0 -- -- 83
2019-02-14 03:00:00 6.9 5 Este 13 Este 0 -- -- 81
2019-02-14 02:00:00 6.6 5 Sudeste 8 Sudeste 0 -- -- 79
2019-02-14 01:00:00 6.6 7 Este 10 Este 0 -- -- 77
2019-02-14 00:00:00 7 2 Este 8 Este 0 -- -- 77
2019-02-13 23:00:00 8.7 4 Este 9 Este 0 -- -- 74
2019-02-13 22:00:00 9.7 4 Este 9 Este 0 -- -- 73
2019-02-13 21:00:00 10.3 5 Sudeste 8 Este 0 -- -- 71
2019-02-13 20:00:00 11 5 Sudeste 7 Sudeste 0 -- -- 68
2019-02-13 19:00:00 12.6 4 Sudeste 12 Sur 0 -- -- 62
2019-02-13 18:00:00 14.8 7 Sudeste 19 Sudeste 0 -- -- 53
2019-02-13 17:00:00 16.2 9 Sudeste 21 Sudeste 0 -- -- 48
2019-02-13 16:00:00 16.5 10 Este 22 Este 0 -- -- 50
2019-02-13 15:00:00 16.5 10 Este 23 Este 0 -- -- 54
2019-02-13 14:00:00 15.8 12 Este 26 Este 0 -- -- 53
2019-02-13 13:00:00 14.8 -- -- -- -- 0 -- -- 57
2019-02-13 12:00:00 14.1 -- -- -- -- 0 -- -- 63
2019-02-13 11:00:00 12.2 -- -- -- -- 0 -- -- 73
2019-02-13 10:00:00 9.9 -- -- -- -- 0 -- -- 76
2019-02-13 09:00:00 6.6 -- -- -- -- 0 -- -- 88
2019-02-13 08:00:00 6.3 -- -- -- -- 0 -- -- 89
2019-02-13 07:00:00 6 -- -- -- -- 0 -- -- 91
2019-02-13 06:00:00 6.8 2 Este 10 Este 0 -- -- 87
2019-02-13 05:00:00 7.3 5 Este 14 Este 0 -- -- 88
2019-02-13 04:00:00 7 6 Este 13 Este 0 -- -- 91
2019-02-13 03:00:00 7.2 4 Este 14 Este 0 -- -- 88
2019-02-13 02:00:00 7.3 6 Este 13 Este 0 -- -- 86
2019-02-13 01:00:00 7.3 4 Este 9 Este 0 -- -- 87
2019-02-13 00:00:00 7.6 2 Nordeste 12 Este 0 -- -- 85
2019-02-12 23:00:00 8.9 7 Este 15 Este 0 -- -- 82
2019-02-12 22:00:00 8.9 5 Sudeste 9 Sudeste 0 -- -- 81
2019-02-12 21:00:00 10.1 5 Este 10 Este 0 -- -- 79
2019-02-12 20:00:00 11.1 5 Este 13 Sudeste 0 -- -- 77
2019-02-12 19:00:00 13.1 5 Este 19 Este 0 -- -- 71
2019-02-12 18:00:00 15 10 Este 22 Este 0 -- -- 63
2019-02-12 17:00:00 17 11 Este 23 Este 0 -- -- 59
2019-02-12 16:00:00 16.1 7 Este 20 Nordeste 0 -- -- 62
2019-02-12 15:00:00 16.6 9 Este 21 Este 0 -- -- 61
2019-02-12 14:00:00 15.7 8 Este 23 Este 0 -- -- 66
2019-02-12 13:00:00 15 10 Este 21 Sudeste 0 -- -- 69
2019-02-12 12:00:00 14.1 11 Este 21 Este 0 -- -- 68
2019-02-12 11:00:00 13.2 8 Este 21 Este 0 -- -- 68
2019-02-12 10:00:00 11.1 8 Este 15 Este 0 -- -- 70
2019-02-12 09:00:00 7.5 3 Este 6 Nordeste 0 -- -- 78
2019-02-12 08:00:00 7.5 5 Este 7 Nordeste 0 -- -- 82
2019-02-12 07:00:00 6.8 0 Calma 4 Sudeste 0 -- -- 89
2019-02-12 06:00:00 7 0 Calma 4 Este 0 -- -- 88
2019-02-12 05:00:00 7.1 0 Calma 3 Sudeste 0 -- -- 85
2019-02-12 04:00:00 7.2 2 Sudeste 3 Sudeste 0 -- -- 84
2019-02-12 03:00:00 7.2 0 Calma 3 Sudeste 0 -- -- 82
2019-02-12 02:00:00 7.2 0 Calma 2 Sur 0 -- -- 79
2019-02-12 01:00:00 7.4 0 Calma 2 Este 0 -- -- 77
2019-02-12 00:00:00 7.6 0 Calma 3 Sudeste 0 -- -- 72
2019-02-11 23:00:00 8.1 0 Calma 3 Sudeste 0 -- -- 69
2019-02-11 22:00:00 8.7 0 Calma 2 Sudeste 0 -- -- 66
2019-02-11 21:00:00 9.6 2 Sudeste 4 Este 0 -- -- 66
2019-02-11 20:00:00 10.7 0 Calma 2 Oeste 0 -- -- 66
2019-02-11 19:00:00 13.3 0 Calma 12 Nordeste 0 -- -- 58
2019-02-11 18:00:00 15.8 6 Nordeste 14 Este 0 -- -- 50
2019-02-11 17:00:00 18.2 2 Norte 14 Este 0 -- -- 46
2019-02-11 16:00:00 17.2 3 Norte 10 Este 0 -- -- 51
2019-02-11 15:00:00 18.5 4 Nordeste 10 Nordeste 0 -- -- 56
2019-02-11 14:00:00 17.5 4 Nordeste 11 Este 0 -- -- 62
2019-02-11 13:00:00 15.5 3 Noroeste 9 Este 0 -- -- 60
2019-02-11 12:00:00 13.6 4 Noroeste 12 Oeste 0 -- -- 68
2019-02-11 11:00:00 11.5 2 Nordeste 5 Nordeste 0 -- -- 98
2019-02-11 10:00:00 9.2 3 Oeste 5 Sudoeste 0 -- -- 100
2019-02-11 09:00:00 7.3 0 Calma 4 Oeste 0 -- -- 99
2019-02-11 08:00:00 8.6 3 Sudoeste 6 Oeste 0 -- -- 98
2019-02-11 07:00:00 8.7 0 Calma 5 Sudoeste 0 -- -- 97
2019-02-11 06:00:00 10 0 Calma 5 Oeste 0 -- -- 97
2019-02-11 05:00:00 10.5 2 Sudoeste 9 Sudoeste 0 -- -- 96
2019-02-11 04:00:00 10.9 3 Sudoeste 11 Sur 0 -- -- 96
2019-02-11 03:00:00 11.1 4 Sudoeste 10 Sudoeste 0 -- -- 94
2019-02-11 02:00:00 11.4 3 Sudoeste 12 Sudoeste 0 -- -- 91
2019-02-11 01:00:00 11.4 4 Oeste 10 Sudoeste 0 -- -- 88
2019-02-11 00:00:00 10.6 3 Oeste 7 Sudoeste 0 -- -- 89
2019-02-10 23:00:00 11.3 0 Calma 11 Sudoeste 0 -- -- 81
2019-02-10 22:00:00 12.4 4 Oeste 12 Oeste 0 -- -- 78
2019-02-10 21:00:00 12.1 4 Oeste 9 Oeste 0 -- -- 77
2019-02-10 20:00:00 12.6 2 Oeste 8 Noroeste 0 -- -- 74
2019-02-10 19:00:00 12.6 2 Oeste 19 Noroeste 0 -- -- 73
2019-02-10 18:00:00 14.3 6 Sudoeste 15 Noroeste 0 -- -- 66
2019-02-10 17:00:00 14.6 8 Noroeste 22 Noroeste 0 -- -- 61
2019-02-10 16:00:00 14.8 9 Noroeste 21 Noroeste 0 -- -- 60
2019-02-10 15:00:00 14.5 10 Oeste 21 Oeste 0 -- -- 62
2019-02-10 14:00:00 14.4 7 Noroeste 19 Noroeste 0 -- -- 62
2019-02-10 13:00:00 13.7 7 Noroeste 15 Norte 0 -- -- 65
2019-02-10 12:00:00 12.5 2 Noroeste 11 Norte 0 -- -- 69
2019-02-10 11:00:00 11.1 5 Norte 13 Noroeste 0 -- -- 76
2019-02-10 10:00:00 8.4 3 Noroeste 7 Noroeste 0 -- -- 89
2019-02-10 09:00:00 5.4 2 Oeste 4 Oeste 0 -- -- 99
2019-02-10 08:00:00 5 2 Oeste 4 Oeste 0 -- -- 98
2019-02-10 07:00:00 5.1 0 Calma 4 Sudoeste 0 -- -- 97
2019-02-10 06:00:00 5.8 0 Calma 4 Sudoeste 0 -- -- 96
2019-02-10 05:00:00 6.3 2 Oeste 4 Oeste 0 -- -- 97
2019-02-10 04:00:00 6.2 0 Calma 4 Sudoeste 0 -- -- 98
2019-02-10 03:00:00 5.9 0 Calma 4 Oeste 0 -- -- 97
2019-02-10 02:00:00 6.5 0 Calma 7 Oeste 0 -- -- 95
2019-02-10 01:00:00 6.7 3 Oeste 5 Oeste 0 -- -- 96
2019-02-10 00:00:00 7.3 0 Calma 10 Oeste 0 -- -- 91
2019-02-09 23:00:00 8.5 5 Sudoeste 10 Sudoeste 0 -- -- 89
2019-02-09 22:00:00 8.7 4 Sudoeste 10 Sudoeste 0 -- -- 87
2019-02-09 21:00:00 9.9 6 Sudoeste 13 Sudoeste 0 -- -- 84
2019-02-09 20:00:00 10.3 8 Sur 13 Sur 0 -- -- 79
2019-02-09 19:00:00 11.7 6 Sur 12 Sur 0 -- -- 69
2019-02-09 18:00:00 13.9 4 Sudoeste 11 Sudoeste 0 -- -- 60
2019-02-09 17:00:00 15.2 6 Sudoeste 16 Sudeste 0 -- -- 55
2019-02-09 16:00:00 15.6 5 Sudoeste 16 Sur 0 -- -- 56
2019-02-09 15:00:00 15.1 5 Sur 16 Oeste 0 -- -- 60
2019-02-09 14:00:00 14.4 6 Sudoeste 16 Sur 0 -- -- 65
2019-02-09 13:00:00 13.8 5 Sur 18 Sur 0 -- -- 68
2019-02-09 12:00:00 12.9 6 Sur 13 Sudeste 0 -- -- 71
2019-02-09 11:00:00 10.1 2 Norte 4 Nordeste 0 -- -- 86
2019-02-09 10:00:00 8 0 Calma 0 Calma 0 -- -- 99
2019-02-09 09:00:00 4.7 0 Calma 0 Calma 0 -- -- 99
2019-02-09 08:00:00 4.2 0 Calma 0 Calma 0 -- -- 98
2019-02-09 07:00:00 4.5 0 Calma 3 Sudeste 0 -- -- 97
2019-02-09 06:00:00 4.4 0 Calma 2 Sur 0 -- -- 97
2019-02-09 05:00:00 4.7 0 Calma 3 Sudoeste 0 -- -- 96
2019-02-09 04:00:00 5.2 0 Calma 4 Sudoeste 0 -- -- 96
2019-02-09 03:00:00 5.4 0 Calma 3 Oeste 0 -- -- 94
2019-02-09 02:00:00 6.1 0 Calma 5 Noroeste 0 -- -- 93
2019-02-09 01:00:00 6.7 0 Calma 3 Noroeste 0 -- -- 91
2019-02-09 00:00:00 7.7 0 Calma 6 Noroeste 0 -- -- 88
2019-02-08 23:00:00 8 2 Oeste 8 Noroeste 0 -- -- 87
2019-02-08 22:00:00 8.6 0 Calma 8 Sudoeste 0 -- -- 85
2019-02-08 21:00:00 10.1 5 Sudoeste 13 Sur 0 -- -- 75
2019-02-08 20:00:00 10.7 8 Sur 13 Sudoeste 0 -- -- 72
2019-02-08 19:00:00 12.6 7 Sudoeste 13 Sudoeste 0 -- -- 63
2019-02-08 18:00:00 15.4 6 Sur 14 Sur 0 -- -- 52
2019-02-08 17:00:00 17.2 4 Sur 12 Oeste 0 -- -- 46
2019-02-08 16:00:00 17.2 5 Sudoeste 14 Sur 0 -- -- 46
2019-02-08 15:00:00 16.7 5 Sudoeste 13 Sudoeste 0 -- -- 47
2019-02-08 14:00:00 15.9 5 Oeste 13 Oeste 0 -- -- 51
2019-02-08 13:00:00 15.7 4 Sur 14 Sudeste 0 -- -- 55
2019-02-08 12:00:00 15.2 5 Sudeste 10 Sur 0 -- -- 55
2019-02-08 11:00:00 12.3 0 Calma 3 Nordeste 0 -- -- 60
2019-02-08 10:00:00 8.9 0 Calma 2 Sudeste 0 -- -- 70
2019-02-08 09:00:00 5.4 0 Calma 2 Sudeste 0 -- -- 74
2019-02-08 08:00:00 5.9 0 Calma 2 Sur 0 -- -- 75
2019-02-08 07:00:00 5.7 0 Calma 2 Sudeste 0 -- -- 79
2019-02-08 06:00:00 6.4 0 Calma 2 Sudoeste 0 -- -- 77
2019-02-08 05:00:00 6.3 0 Calma 3 Sudoeste 0 -- -- 77
2019-02-08 04:00:00 6.6 0 Calma 2 Sudeste 0 -- -- 74
2019-02-08 03:00:00 7 0 Calma 3 Oeste 0 -- -- 72
2019-02-08 02:00:00 7 2 Oeste 4 Oeste 0 -- -- 70
2019-02-08 01:00:00 7.3 0 Calma 3 Oeste 0 -- -- 68
2019-02-08 00:00:00 7.8 0 Calma 3 Sudoeste 0 -- -- 66
2019-02-07 23:00:00 8.2 0 Calma 3 Sudoeste 0 -- -- 66
2019-02-07 22:00:00 9.3 0 Calma 2 Sudeste 0 -- -- 70
2019-02-07 21:00:00 10.2 0 Calma 12 Sur 0 -- -- 76
2019-02-07 20:00:00 12.3 9 Sur 14 Sur 0 -- -- 66
2019-02-07 19:00:00 13.8 8 Sur 13 Sur 0 -- -- 64
2019-02-07 18:00:00 16.9 4 Sudoeste 13 Sur 0 -- -- 54
2019-02-07 17:00:00 18.5 7 Sudoeste 15 Sur 0 -- -- 51
2019-02-07 16:00:00 18.8 5 Sur 15 Sudoeste 0 -- -- 49
2019-02-07 15:00:00 18.2 6 Noroeste 15 Oeste 0 -- -- 43
2019-02-07 14:00:00 17.4 6 Sudoeste 15 Sudoeste 0 -- -- 47
2019-02-07 13:00:00 16.9 5 Sudoeste 10 Sudoeste 0 -- -- 48
2019-02-07 12:00:00 15.7 3 Noroeste 8 Oeste 0 -- -- 52
2019-02-07 11:00:00 13.8 2 Norte 8 Noroeste 0 -- -- 58
2019-02-07 10:00:00 11.2 2 Noroeste 6 Oeste 0 -- -- 68
2019-02-07 09:00:00 8 3 Oeste 7 Oeste 0 -- -- 76
2019-02-07 08:00:00 7.6 3 Oeste 5 Noroeste 0 -- -- 81
2019-02-07 07:00:00 8.3 0 Calma 4 Norte 0 -- -- 79
2019-02-07 06:00:00 8.5 0 Calma 4 Noroeste 0 -- -- 79
2019-02-07 05:00:00 8.6 2 Oeste 4 Oeste 0 -- -- 78
2019-02-07 04:00:00 8.6 0 Calma 4 Oeste 0 -- -- 76
2019-02-07 03:00:00 8.3 2 Oeste 4 Oeste 0 -- -- 77
2019-02-07 02:00:00 8.9 0 Calma 6 Oeste 0 -- -- 75
2019-02-07 01:00:00 9.7 3 Oeste 7 Oeste 0 -- -- 72
2019-02-07 00:00:00 9.9 3 Oeste 5 Oeste 0 -- -- 73
2019-02-06 23:00:00 9.5 0 Calma 2 Oeste 0 -- -- 79
2019-02-06 22:00:00 9.7 0 Calma 4 Sudoeste 0 -- -- 79
2019-02-06 21:00:00 10.8 0 Calma 11 Sur 0 -- -- 71
2019-02-06 20:00:00 11.3 6 Sur 12 Sudoeste 0 -- -- 70
2019-02-06 19:00:00 13.4 7 Sur 15 Sudoeste 0 -- -- 64
2019-02-06 18:00:00 16.1 8 Sudoeste 19 Sur 0 -- -- 57
2019-02-06 17:00:00 19.4 6 Sudoeste 13 Sudoeste 0 -- -- 47
2019-02-06 16:00:00 19.5 3 Oeste 16 Noroeste 0 -- -- 38
2019-02-06 15:00:00 19 4 Noroeste 9 Noroeste 0 -- -- 40
2019-02-06 14:00:00 17.9 5 Oeste 11 Noroeste 0 -- -- 40
2019-02-06 13:00:00 17.5 3 Sudeste 7 Nordeste 0 -- -- 48
2019-02-06 12:00:00 16.8 3 Nordeste 10 Nordeste 0 -- -- 50
2019-02-06 11:00:00 13.1 0 Calma 3 Nordeste 0 -- -- 59
2019-02-06 10:00:00 10 0 Calma 0 Calma 0 -- -- 65
2019-02-06 09:00:00 7.4 0 Calma 4 Sudeste 0 -- -- 73
2019-02-06 08:00:00 7.4 3 Sudeste 4 Sudeste 0 -- -- 71
2019-02-06 07:00:00 7.5 0 Calma 2 Sudeste 0 -- -- 69
2019-02-06 06:00:00 7.6 0 Calma 2 Oeste 0 -- -- 68
2019-02-06 05:00:00 7.5 0 Calma 2 Oeste 0 -- -- 67
2019-02-06 04:00:00 7.9 0 Calma 3 Oeste 0 -- -- 67
2019-02-06 03:00:00 8 0 Calma 2 Oeste 0 -- -- 68
2019-02-06 02:00:00 8.1 0 Calma 2 Oeste 0 -- -- 67
2019-02-06 01:00:00 8.8 0 Calma 0 Calma 0 -- -- 62
2019-02-06 00:00:00 9.1 0 Calma 0 Calma 0 -- -- 60
2019-02-05 23:00:00 9.4 0 Calma 2 Sudoeste 0 -- -- 60
2019-02-05 22:00:00 9.6 0 Calma 2 Sudoeste 0 -- -- 57
2019-02-05 21:00:00 9.9 0 Calma 8 Sur 0 -- -- 58
2019-02-05 20:00:00 12.7 7 Sur 14 Sur 0 -- -- 50
2019-02-05 19:00:00 13.3 9 Sur 13 Sur 0 -- -- 45
2019-02-05 18:00:00 16.8 5 Sur 10 Sur 0 -- -- 39
2019-02-05 17:00:00 18.6 5 Sur 12 Sudeste 0 -- -- 31
2019-02-05 16:00:00 19.4 2 Este 8 Noroeste 0 -- -- 29
2019-02-05 15:00:00 18.6 3 Norte 8 Noroeste 0 -- -- 34
2019-02-05 14:00:00 17.7 3 Nordeste 8 Nordeste 0 -- -- 30
2019-02-05 13:00:00 17.2 5 Este 11 Nordeste 0 -- -- 33
2019-02-05 12:00:00 15.4 4 Sudeste 9 Este 0 -- -- 34
2019-02-05 11:00:00 11.8 0 Calma 3 Norte 0 -- -- 45
2019-02-05 10:00:00 8.8 0 Calma 2 Norte 0 -- -- 56
2019-02-05 09:00:00 4.9 0 Calma 0 Calma 0 -- -- 66
2019-02-05 08:00:00 4.8 0 Calma 2 Sudeste 0 -- -- 63
2019-02-05 07:00:00 4.9 0 Calma 3 Sudoeste 0 -- -- 63
2019-02-05 06:00:00 4.8 0 Calma 2 Sudoeste 0 -- -- 64
2019-02-05 05:00:00 5.1 0 Calma 2 Sudeste 0 -- -- 65
2019-02-05 04:00:00 4.8 0 Calma 4 Sudeste 0 -- -- 70
2019-02-05 03:00:00 5.5 0 Calma 4 Sudeste 0 -- -- 67
2019-02-05 02:00:00 5.8 2 Este 5 Sudeste 0 -- -- 67
2019-02-05 01:00:00 5.2 0 Calma 4 Noroeste 0 -- -- 72
2019-02-05 00:00:00 5.7 0 Calma 2 Oeste 0 -- -- 67
2019-02-04 23:00:00 6.5 0 Calma 0 Calma 0 -- -- 62
2019-02-04 22:00:00 6.9 0 Calma 3 Oeste 0 -- -- 63
2019-02-04 21:00:00 8 0 Calma 4 Sudeste 0 -- -- 59
2019-02-04 20:00:00 9.7 2 Sudoeste 7 Sudoeste 0 -- -- 54
2019-02-04 19:00:00 10.8 5 Sur 8 Sur 0 -- -- 53
2019-02-04 18:00:00 13.5 0 Calma 4 Nordeste 0 -- -- 46
2019-02-04 17:00:00 16.2 0 Calma 8 Este 0 -- -- 34
2019-02-04 16:00:00 15.9 2 Nordeste 12 Este 0 -- -- 38
2019-02-04 15:00:00 15.3 4 Nordeste 12 Nordeste 0 -- -- 39
2019-02-04 14:00:00 13.5 3 Nordeste 12 Este 0 -- -- 38
2019-02-04 13:00:00 12.4 3 Sudeste 12 Este 0 -- -- 45
2019-02-04 12:00:00 10.9 3 Nordeste 18 Este 0 -- -- 49
2019-02-04 11:00:00 8.7 9 Este 19 Este 0 -- -- 52
2019-02-04 10:00:00 6.4 5 Nordeste 15 Este 0 -- -- 60
2019-02-04 09:00:00 2.2 4 Este 8 Este 0 -- -- 69
2019-02-04 08:00:00 2.3 4 Este 10 Este 0 -- -- 69
2019-02-04 07:00:00 1.7 3 Este 7 Sudeste 0 -- -- 74
2019-02-04 06:00:00 1.6 0 Calma 8 Nordeste 0 -- -- 76
2019-02-04 05:00:00 1.6 0 Calma 2 Sur 0 -- -- 77
2019-02-04 04:00:00 2 0 Calma 4 Norte 0 -- -- 76
2019-02-04 03:00:00 1.8 0 Calma 5 Sudoeste 0 -- -- 77
2019-02-04 02:00:00 2 0 Calma 5 Este 0 -- -- 76
2019-02-04 01:00:00 2.4 0 Calma 2 Sudeste 0 -- -- 75
2019-02-04 00:00:00 3.4 0 Calma 8 Oeste 0 -- -- 73
2019-02-03 23:00:00 3.1 3 Oeste 6 Noroeste 0 -- -- 77
2019-02-03 22:00:00 3.8 2 Noroeste 6 Noroeste 0 -- -- 76
2019-02-03 21:00:00 4 2 Oeste 4 Oeste 0 -- -- 75
2019-02-03 20:00:00 5.1 0 Calma 3 Oeste 0 -- -- 68
2019-02-03 19:00:00 7.4 0 Calma 8 Norte 0 -- -- 62
2019-02-03 18:00:00 10.9 2 Nordeste 10 Este 0 -- -- 50
2019-02-03 17:00:00 12.9 3 Nordeste 14 Nordeste 0 -- -- 43
2019-02-03 16:00:00 12.6 4 Nordeste 13 Nordeste 0 -- -- 45
2019-02-03 15:00:00 11.5 4 Nordeste 15 Nordeste 0 -- -- 45
2019-02-03 14:00:00 11.4 4 Nordeste 14 Este 0 -- -- 48
2019-02-03 13:00:00 10.4 5 Nordeste 21 Norte 0 -- -- 51
2019-02-03 12:00:00 8.1 3 Norte 15 Norte 0 -- -- 61
2019-02-03 11:00:00 7.2 4 Norte 16 Norte 0 -- -- 65
2019-02-03 10:00:00 5.3 4 Norte 18 Norte 0 -- -- 71
2019-02-03 09:00:00 1.5 2 Norte 12 Norte 0 -- -- 82
2019-02-03 08:00:00 2.4 5 Norte 13 Norte 0 -- -- 78
2019-02-03 07:00:00 2.5 4 Norte 13 Noroeste 0 -- -- 77
2019-02-03 06:00:00 2.2 0 Calma 14 Noroeste 0 -- -- 77
2019-02-03 05:00:00 2.9 8 Noroeste 18 Oeste 0 -- -- 75
2019-02-03 04:00:00 2.8 5 Oeste 23 Noroeste 0 -- -- 73
2019-02-03 03:00:00 4.2 5 Noroeste 21 Noroeste 0 -- -- 66
2019-02-03 02:00:00 4.5 10 Noroeste 25 Noroeste 0 -- -- 63
2019-02-03 01:00:00 5.1 10 Noroeste 28 Noroeste 0 -- -- 60
2019-02-03 00:00:00 5.4 10 Norte 25 Norte 0 -- -- 59
2019-02-02 23:00:00 5.1 12 Noroeste 25 Noroeste 0 -- -- 60
2019-02-02 22:00:00 5.8 9 Noroeste 23 Noroeste 0 -- -- 56
2019-02-02 21:00:00 6.3 12 Noroeste 24 Noroeste 0 -- -- 57
2019-02-02 20:00:00 6.6 9 Noroeste 22 Norte 0 -- -- 53
2019-02-02 19:00:00 7.8 12 Norte 37 Noroeste 0 -- -- 47
2019-02-02 18:00:00 8.7 14 Norte 35 Norte 0 -- -- 49
2019-02-02 17:00:00 9.9 12 Norte 36 Norte 0 -- -- 47
2019-02-02 16:00:00 10 11 Norte 44 Noroeste 0 -- -- 49
2019-02-02 15:00:00 10.7 13 Norte 40 Noroeste 0 -- -- 49
2019-02-02 14:00:00 10.1 20 Noroeste 48 Norte 0 -- -- 48
2019-02-02 13:00:00 9.6 14 Norte 43 Noroeste 0 -- -- 52
2019-02-02 12:00:00 8.6 15 Noroeste 42 Noroeste 0 -- -- 55
2019-02-02 11:00:00 7.3 22 Noroeste 44 Noroeste 0 -- -- 60
2019-02-02 10:00:00 5.8 21 Noroeste 40 Noroeste 0 -- -- 70
2019-02-02 09:00:00 4.7 17 Noroeste 33 Noroeste 0 -- -- 78
2019-02-02 08:00:00 4.9 17 Noroeste 33 Noroeste 0 -- -- 84
2019-02-02 07:00:00 5.4 17 Noroeste 41 Noroeste 0 -- -- 86
2019-02-02 06:00:00 5.9 19 Noroeste 39 Oeste 0 -- -- 88
2019-02-02 05:00:00 6.3 21 Noroeste 46 Noroeste 0 -- -- 82
2019-02-02 04:00:00 6.4 17 Noroeste 42 Noroeste 0 -- -- 84
2019-02-02 03:00:00 6.4 18 Noroeste 43 Noroeste 0 -- -- 84
2019-02-02 02:00:00 6.6 15 Noroeste 40 Noroeste 0 -- -- 87
2019-02-02 01:00:00 6.1 11 Oeste 24 Oeste 0 -- -- 91
2019-02-02 00:00:00 5.2 10 Oeste 28 Noroeste 0 -- -- 91
2019-02-01 23:00:00 4.8 15 Noroeste 33 Noroeste 0 -- -- 90
2019-02-01 22:00:00 4.9 18 Noroeste 34 Noroeste 0 -- -- 86
2019-02-01 21:00:00 5.4 14 Noroeste 58 Noroeste 0 -- -- 85
2019-02-01 20:00:00 6.4 7 Noroeste 41 Noroeste 0 -- -- 84
2019-02-01 19:00:00 6.5 14 Noroeste 36 Noroeste 0 -- -- 86
2019-02-01 18:00:00 6.6 17 Noroeste 67 Noroeste 1.2 -- -- 89
2019-02-01 17:00:00 9.4 28 Noroeste 57 Oeste 0.8 -- -- 73
2019-02-01 16:00:00 11.7 22 Oeste 56 Oeste 0 -- -- 63
2019-02-01 15:00:00 11.8 22 Oeste 56 Noroeste 0 -- -- 59
2019-02-01 14:00:00 10.4 18 Oeste 44 Oeste 0.4 -- -- 73
2019-02-01 13:00:00 11.7 17 Oeste 46 Noroeste 0 -- -- 64
2019-02-01 12:00:00 10.6 17 Oeste 37 Oeste 0 -- -- 67
2019-02-01 11:00:00 9.5 16 Noroeste 32 Noroeste 0 -- -- 78
2019-02-01 10:00:00 8.7 16 Noroeste 30 Oeste 0 -- -- 89
2019-02-01 09:00:00 8.4 10 Oeste 34 Noroeste 0 -- -- 90
2019-02-01 08:00:00 8.2 13 Noroeste 33 Noroeste 0 -- -- 89
2019-02-01 07:00:00 9 18 Noroeste 44 Oeste 0.2 -- -- 92
2019-02-01 06:00:00 11.1 14 Oeste 33 Noroeste 0.8 -- -- 98
2019-02-01 05:00:00 10.7 9 Oeste 33 Noroeste 8 -- -- 98
2019-02-01 04:00:00 12.2 10 Sudoeste 42 Oeste 4.2 -- -- 100
2019-02-01 03:00:00 12.2 18 Sudoeste 42 Sudoeste 3.6 -- -- 100
2019-02-01 02:00:00 11.9 14 Sudoeste 39 Sudoeste 2.6 -- -- 100
2019-02-01 01:00:00 11.5 17 Sudoeste 40 Sudoeste 0.8 -- -- 100
2019-02-01 00:00:00 11.1 10 Sudoeste 31 Sudoeste 0 -- -- 99
2019-01-31 23:00:00 11.2 9 Sudoeste 26 Sudoeste 0.2 -- -- 99
2019-01-31 22:00:00 11.3 11 Sudoeste 24 Sudoeste 0.2 -- -- 98
2019-01-31 21:00:00 11.6 8 Sudoeste 29 Oeste 0 -- -- 98
2019-01-31 20:00:00 11.6 10 Sudoeste 29 Sur 0 -- -- 99
2019-01-31 19:00:00 11.6 8 Sudoeste 24 Sudoeste 0 -- -- 96
2019-01-31 18:00:00 12 9 Sudoeste 28 Sudoeste 0 -- -- 96
2019-01-31 17:00:00 12.1 11 Sudoeste 29 Oeste 0.4 -- -- 96
2019-01-31 16:00:00 13.2 8 Sudoeste 25 Sudoeste 0 -- -- 87
2019-01-31 15:00:00 13.4 10 Sudoeste 29 Sudoeste 0 -- -- 81
2019-01-31 14:00:00 13.6 8 Oeste 29 Oeste 0 -- -- 82
2019-01-31 13:00:00 12.5 15 Oeste 33 Oeste 0 -- -- 88
2019-01-31 12:00:00 11.5 12 Oeste 31 Oeste 0 -- -- 95
2019-01-31 11:00:00 10.8 11 Sudoeste 28 Oeste 0 -- -- 97
2019-01-31 10:00:00 10.5 11 Oeste 22 Oeste 0 -- -- 99
2019-01-31 09:00:00 10.6 10 Oeste 28 Sudoeste 0.2 -- -- 99
2019-01-31 08:00:00 10.7 11 Sudoeste 27 Oeste 0 -- -- 100
2019-01-31 07:00:00 10.6 6 Sudoeste 17 Sudoeste 0 -- -- 100
2019-01-31 06:00:00 10.4 6 Oeste 19 Oeste 0 -- -- 100
2019-01-31 05:00:00 10.2 9 Sudoeste 21 Sudoeste 0.2 -- -- 100
2019-01-31 04:00:00 10.1 8 Oeste 18 Noroeste 0 -- -- 100
2019-01-31 03:00:00 10 10 Oeste 26 Sudoeste 0 -- -- 100
2019-01-31 02:00:00 10 12 Sudoeste 26 Sudoeste 0.4 -- -- 99
2019-01-31 01:00:00 10.1 13 Sudoeste 26 Sudoeste 0.4 -- -- 98
2019-01-31 00:00:00 10 8 Sudoeste 22 Sudoeste 0 -- -- 97
2019-01-30 23:00:00 9.9 7 Sudoeste 20 Sudoeste 0 -- -- 98
2019-01-30 22:00:00 9.8 7 Sudoeste 19 Sudoeste 0 -- -- 99
2019-01-30 21:00:00 9.4 7 Sudoeste 15 Oeste 0 -- -- 99
2019-01-30 20:00:00 9.1 6 Sudoeste 15 Sudoeste 0 -- -- 98
2019-01-30 19:00:00 9.1 8 Sudoeste 18 Sudoeste 0.6 -- -- 96
2019-01-30 18:00:00 9.6 6 Sudoeste 17 Oeste 0.2 -- -- 91
2019-01-30 17:00:00 10.8 7 Oeste 17 Oeste 0 -- -- 82
2019-01-30 16:00:00 11.2 5 Oeste 24 Oeste 0 -- -- 76
2019-01-30 15:00:00 12.1 12 Noroeste 26 Noroeste 0 -- -- 65
2019-01-30 14:00:00 12.7 8 Noroeste 26 Oeste 0 -- -- 64
2019-01-30 13:00:00 12.3 12 Noroeste 26 Noroeste 0 -- -- 65
2019-01-30 12:00:00 10.8 13 Noroeste 23 Noroeste 0 -- -- 69
2019-01-30 11:00:00 8.9 10 Noroeste 18 Noroeste 0 -- -- 80
2019-01-30 10:00:00 8.2 9 Noroeste 24 Noroeste 0 -- -- 83
2019-01-30 09:00:00 8 7 Oeste 16 Noroeste 0 -- -- 83
2019-01-30 08:00:00 8 6 Noroeste 14 Oeste 0 -- -- 87
2019-01-30 07:00:00 8.2 4 Oeste 28 Noroeste 0 -- -- 86
2019-01-30 06:00:00 8.8 12 Noroeste 29 Noroeste 0 -- -- 85
2019-01-30 05:00:00 9.1 12 Noroeste 24 Oeste 0 -- -- 91
2019-01-30 04:00:00 9.7 15 Noroeste 32 Oeste 0 -- -- 90
2019-01-30 03:00:00 9.1 8 Sudoeste 20 Oeste 0 -- -- 96
2019-01-30 02:00:00 8.7 8 Oeste 16 Oeste 0 -- -- 96
2019-01-30 01:00:00 8.8 4 Oeste 12 Oeste 0 -- -- 92
2019-01-30 00:00:00 9.3 4 Oeste 22 Noroeste 0 -- -- 89
2019-01-29 23:00:00 9.4 8 Noroeste 20 Noroeste 0 -- -- 87
2019-01-29 22:00:00 9.2 9 Oeste 24 Sudoeste 0 -- -- 87
2019-01-29 21:00:00 9.7 8 Oeste 17 Oeste 0 -- -- 84
2019-01-29 20:00:00 10.3 5 Noroeste 25 Oeste 0 -- -- 80
2019-01-29 19:00:00 11.1 13 Noroeste 25 Noroeste 0 -- -- 75
2019-01-29 18:00:00 11.6 12 Noroeste 36 Oeste 0 -- -- 73
2019-01-29 17:00:00 12.2 19 Noroeste 38 Noroeste 0 -- -- 69
2019-01-29 16:00:00 12 14 Noroeste 38 Noroeste 0 -- -- 72
2019-01-29 15:00:00 12.8 15 Noroeste 32 Noroeste 0 -- -- 69
2019-01-29 14:00:00 12.4 14 Noroeste 33 Noroeste 0 -- -- 70
2019-01-29 13:00:00 11.7 14 Noroeste 36 Oeste 0 -- -- 75
2019-01-29 12:00:00 9.8 13 Noroeste 31 Noroeste 0 -- -- 83
2019-01-29 11:00:00 9.4 12 Noroeste 29 Noroeste 0 -- -- 83
2019-01-29 10:00:00 8.1 10 Noroeste 22 Oeste 0 -- -- 85
2019-01-29 09:00:00 6.7 9 Noroeste 18 Oeste 0 -- -- 88
2019-01-29 08:00:00 5.7 4 Noroeste 11 Noroeste 0 -- -- 93
2019-01-29 07:00:00 6 2 Noroeste 11 Oeste 0 -- -- 91
2019-01-29 06:00:00 6.4 4 Oeste 16 Oeste 0 -- -- 91
2019-01-29 05:00:00 6.5 4 Oeste 9 Noroeste 0 -- -- 91
2019-01-29 04:00:00 7.4 4 Noroeste 13 Noroeste 0 -- -- 88
2019-01-29 03:00:00 8.1 7 Norte 18 Noroeste 0 -- -- 86
2019-01-29 02:00:00 8.6 7 Oeste 22 Noroeste 0 -- -- 85
2019-01-29 01:00:00 9 9 Noroeste 19 Noroeste 0 -- -- 84
2019-01-29 00:00:00 9.1 7 Noroeste 24 Noroeste 0 -- -- 83
2019-01-28 23:00:00 9.6 12 Noroeste 27 Noroeste 0 -- -- 81
2019-01-28 22:00:00 9.6 15 Noroeste 30 Noroeste 0 -- -- 81
2019-01-28 21:00:00 9.9 13 Noroeste 31 Noroeste 0 -- -- 78
2019-01-28 20:00:00 10.3 10 Noroeste 25 Noroeste 0 -- -- 76
2019-01-28 19:00:00 11.1 14 Norte 30 Noroeste 0 -- -- 72
2019-01-28 18:00:00 11.3 19 Noroeste 36 Noroeste 0 -- -- 70
2019-01-28 17:00:00 11.7 12 Noroeste 36 Noroeste 0 -- -- 67
2019-01-28 16:00:00 12.6 18 Noroeste 36 Oeste 0 -- -- 63
2019-01-28 15:00:00 13.9 15 Noroeste 35 Noroeste 0 -- -- 60
2019-01-28 14:00:00 14.2 13 Norte 34 Noroeste 0 -- -- 54
2019-01-28 13:00:00 13.4 17 Norte 38 Norte 0 -- -- 55
2019-01-28 12:00:00 12 16 Norte 32 Norte 0 -- -- 60
2019-01-28 11:00:00 10.1 6 Norte 30 Norte 0 -- -- 64
2019-01-28 10:00:00 7.3 13 Noroeste 29 Norte 0 -- -- 71
2019-01-28 09:00:00 6.4 12 Noroeste 28 Noroeste 0 -- -- 72
2019-01-28 08:00:00 6.2 14 Noroeste 31 Noroeste 0 -- -- 71
2019-01-28 07:00:00 5.2 9 Noroeste 18 Noroeste 0 -- -- 76
2019-01-28 06:00:00 4.6 9 Noroeste 18 Noroeste 0 -- -- 84
2019-01-28 05:00:00 4.9 5 Noroeste 13 Noroeste 0 -- -- 81
2019-01-28 04:00:00 6.1 6 Noroeste 13 Oeste 0 -- -- 72
2019-01-28 03:00:00 6.9 4 Noroeste 22 Noroeste 0 -- -- 67
2019-01-28 02:00:00 7.9 12 Noroeste 31 Noroeste 0 -- -- 65
2019-01-28 01:00:00 7.5 10 Noroeste 26 Norte 0 -- -- 67
2019-01-28 00:00:00 7.7 12 Noroeste 30 Noroeste 0 -- -- 67
2019-01-27 23:00:00 7.4 7 Noroeste 16 Noroeste 0 -- -- 68
2019-01-27 22:00:00 7.7 10 Noroeste 23 Noroeste 0 -- -- 69
2019-01-27 21:00:00 8.3 10 Noroeste 21 Noroeste 0 -- -- 68
2019-01-27 20:00:00 9 10 Noroeste 19 Noroeste 0 -- -- 67
2019-01-27 19:00:00 9.7 11 Noroeste 26 Noroeste 0 -- -- 66
2019-01-27 18:00:00 11 15 Norte 38 Noroeste 0 -- -- 61
2019-01-27 17:00:00 12.3 17 Noroeste 36 Noroeste 0 -- -- 57
2019-01-27 16:00:00 12.7 14 Noroeste 39 Norte 0 -- -- 58
2019-01-27 15:00:00 12.3 19 Noroeste 38 Noroeste 0 -- -- 59
2019-01-27 14:00:00 12.6 17 Noroeste 33 Noroeste 0 -- -- 62
2019-01-27 13:00:00 12.3 14 Norte 31 Noroeste 0 -- -- 65
2019-01-27 12:00:00 11.3 11 Noroeste 22 Noroeste 0 -- -- 70
2019-01-27 11:00:00 8.3 11 Noroeste 19 Oeste 0 -- -- 78
2019-01-27 10:00:00 5.7 7 Noroeste 13 Noroeste 0 -- -- 88
2019-01-27 09:00:00 4.3 0 Calma 10 Sudoeste 0 -- -- 91
2019-01-27 08:00:00 6.1 3 Oeste 17 Oeste 0 -- -- 87
2019-01-27 07:00:00 7.5 3 Oeste 17 Oeste 0 -- -- 85
2019-01-27 06:00:00 6.8 8 Oeste 18 Oeste 0 -- -- 91
2019-01-27 05:00:00 7.1 2 Oeste 12 Noroeste 0 -- -- 87
2019-01-27 04:00:00 8.1 5 Noroeste 12 Oeste 0 -- -- 84
2019-01-27 03:00:00 7.9 4 Oeste 9 Oeste 0 -- -- 86
2019-01-27 02:00:00 8.6 3 Oeste 9 Oeste 0 -- -- 81
2019-01-27 01:00:00 10.1 5 Sudoeste 9 Sudoeste 0 -- -- 76
2019-01-27 00:00:00 10 4 Oeste 8 Oeste 0 -- -- 77
2019-01-26 23:00:00 10.3 5 Oeste 9 Oeste 0 -- -- 73
2019-01-26 22:00:00 11.3 5 Oeste 14 Oeste 0 -- -- 64
2019-01-26 21:00:00 12.5 7 Sudoeste 15 Sudoeste 0 -- -- 57
2019-01-26 20:00:00 12.7 7 Sudoeste 17 Sudoeste 0 -- -- 55
2019-01-26 19:00:00 13.8 9 Sudoeste 15 Sudoeste 0 -- -- 54
2019-01-26 18:00:00 17.2 6 Sudoeste 12 Sudoeste 0 -- -- 43
2019-01-26 17:00:00 19.6 3 Sudoeste 12 Oeste 0 -- -- 37
2019-01-26 16:00:00 19.6 3 Sudoeste 8 Sudoeste 0 -- -- 36
2019-01-26 15:00:00 18.6 2 Este 10 Este 0 -- -- 36
2019-01-26 14:00:00 17.8 3 Noroeste 11 Nordeste 0 -- -- 39
2019-01-26 13:00:00 17.2 6 Nordeste 19 Este 0 -- -- 44
2019-01-26 12:00:00 15.9 9 Este 16 Este 0 -- -- 50
2019-01-26 11:00:00 13.7 2 Nordeste 5 Nordeste 0 -- -- 63
2019-01-26 10:00:00 10.7 0 Calma 2 Nordeste 0 -- -- 70
2019-01-26 09:00:00 7.3 0 Calma 5 Este 0 -- -- 82
2019-01-26 08:00:00 8.2 4 Sudeste 6 Sudeste 0 -- -- 77
2019-01-26 07:00:00 7.5 0 Calma 4 Sudeste 0 -- -- 81
2019-01-26 06:00:00 7.5 0 Calma 5 Oeste 0 -- -- 85
2019-01-26 05:00:00 8.2 0 Calma 4 Oeste 0 -- -- 83
2019-01-26 04:00:00 8.6 0 Calma 3 Norte 0 -- -- 82
2019-01-26 03:00:00 8.5 0 Calma 3 Oeste 0 -- -- 83
2019-01-26 02:00:00 8.6 0 Calma 4 Sudeste 0 -- -- 84
2019-01-26 01:00:00 9.1 0 Calma 3 Sudeste 0 -- -- 83
2019-01-26 00:00:00 9.3 0 Calma 5 Norte 0 -- -- 80
2019-01-25 23:00:00 10.4 0 Calma 4 Oeste 0 -- -- 73
2019-01-25 22:00:00 10.9 0 Calma 3 Nordeste 0 -- -- 69
2019-01-25 21:00:00 11.2 0 Calma 4 Este 0 -- -- 66
2019-01-25 20:00:00 12.3 0 Calma 7 Este 0 -- -- 62
2019-01-25 19:00:00 13.8 0 Calma 10 Este 0 -- -- 56
2019-01-25 18:00:00 17.2 5 Nordeste 13 Nordeste 0 -- -- 48
2019-01-25 17:00:00 19.5 6 Nordeste 17 Nordeste 0 -- -- 41
2019-01-25 16:00:00 19.9 5 Nordeste 15 Este 0 -- -- 42
2019-01-25 15:00:00 19.9 4 Norte 15 Norte 0 -- -- 47
2019-01-25 14:00:00 19.2 6 Nordeste 16 Nordeste 0 -- -- 43
2019-01-25 13:00:00 18.3 7 Nordeste 15 Nordeste 0 -- -- 52
2019-01-25 12:00:00 16.6 5 Nordeste 12 Nordeste 0 -- -- 62
2019-01-25 11:00:00 14.3 2 Nordeste 7 Sudeste 0 -- -- 67
2019-01-25 10:00:00 11.4 3 Este 5 Este 0 -- -- 78
2019-01-25 09:00:00 7.1 0 Calma 2 Sudeste 0 -- -- 93
2019-01-25 08:00:00 7 0 Calma 2 Sudeste 0 -- -- 93
2019-01-25 07:00:00 7.7 0 Calma 4 Sur 0 -- -- 90
2019-01-25 06:00:00 8 0 Calma 2 Sudoeste 0 -- -- 89
2019-01-25 05:00:00 7.8 0 Calma 3 Oeste 0 -- -- 90
2019-01-25 04:00:00 8.4 0 Calma 5 Oeste 0 -- -- 87
2019-01-25 03:00:00 9.2 2 Oeste 4 Sudoeste 0 -- -- 85
2019-01-25 02:00:00 9.3 0 Calma 3 Este 0 -- -- 85
2019-01-25 01:00:00 9.3 0 Calma 3 Norte 0 -- -- 87
2019-01-25 00:00:00 9.5 0 Calma 4 Noroeste 0 -- -- 86
2019-01-24 23:00:00 10.1 0 Calma 4 Sudoeste 0 -- -- 83
2019-01-24 22:00:00 10.7 3 Oeste 6 Oeste 0 -- -- 82
2019-01-24 21:00:00 11.3 0 Calma 8 Oeste 0 -- -- 78
2019-01-24 20:00:00 12.1 2 Oeste 8 Noroeste 0 -- -- 75
2019-01-24 19:00:00 14.4 0 Calma 13 Noroeste 0 -- -- 68
2019-01-24 18:00:00 16.2 5 Norte 13 Noroeste 0 -- -- 62
2019-01-24 17:00:00 18.3 3 Norte 16 Norte 0 -- -- 57
2019-01-24 16:00:00 17.8 6 Norte 17 Norte 0 -- -- 58
2019-01-24 15:00:00 17.1 8 Noroeste 19 Norte 0 -- -- 60
2019-01-24 14:00:00 17.1 5 Nordeste 24 Noroeste 0 -- -- 63
2019-01-24 13:00:00 15.2 10 Norte 26 Norte 0 -- -- 68
2019-01-24 12:00:00 14.9 9 Norte 28 Norte 0 -- -- 66
2019-01-24 11:00:00 12.9 10 Norte 33 Norte 0 -- -- 73
2019-01-24 10:00:00 11.6 15 Norte 36 Noroeste 0 -- -- 76
2019-01-24 09:00:00 10.5 15 Norte 40 Noroeste 0 -- -- 79
2019-01-24 08:00:00 10.6 15 Norte 41 Noroeste 0 -- -- 79
2019-01-24 07:00:00 10.8 19 Norte 46 Noroeste 0 -- -- 78
2019-01-24 06:00:00 10.6 18 Norte 44 Noroeste 0 -- -- 80
2019-01-24 05:00:00 10.2 18 Noroeste 44 Norte 0 -- -- 82
2019-01-24 04:00:00 10.3 18 Noroeste 37 Noroeste 0 -- -- 83
2019-01-24 03:00:00 10.2 15 Norte 34 Noroeste 0 -- -- 83
2019-01-24 02:00:00 10.2 16 Noroeste 30 Norte 0 -- -- 84
2019-01-24 01:00:00 10.1 12 Noroeste 25 Noroeste 0 -- -- 85
2019-01-24 00:00:00 10.6 13 Noroeste 30 Noroeste 0 -- -- 83